Time,TemperatureF,DewpointF,PressureIn,WindDirection,WindDirectionDegrees,WindSpeedMPH,WindSpeedGustMPH,Humidity,HourlyPrecipIn,Conditions,Clouds,dailyrainin,SoftwareType,DateUTC
2013-06-11 00:00:00,62.2,61.3,29.77,NW,310,0.0,1.0,97,0.00,,,0.00,meteohub,2013-06-11 04:00:00,
2013-06-11 00:01:00,62.2,61.3,29.77,NW,310,0.0,1.0,97,0.00,,,0.00,meteohub,2013-06-11 04:01:00,
2013-06-11 00:02:00,62.2,61.3,29.77,NW,310,0.0,1.0,97,0.00,,,0.00,meteohub,2013-06-11 04:02:00,
2013-06-11 00:06:00,62.2,61.3,29.77,NW,310,0.0,1.0,97,0.00,,,0.00,meteohub,2013-06-11 04:06:00,
2013-06-11 00:09:00,62.4,61.5,29.77,NW,310,0.0,1.0,97,0.00,,,0.00,meteohub,2013-06-11 04:09:00,
2013-06-11 00:15:00,62.4,61.5,29.77,NW,310,0.0,1.0,97,0.00,,,0.00,meteohub,2013-06-11 04:15:00,
2013-06-11 00:20:00,62.4,61.5,29.77,NW,310,1.0,2.0,97,0.00,,,0.00,meteohub,2013-06-11 04:20:00,
2013-06-11 00:25:00,62.4,61.5,29.77,NW,310,2.0,2.0,97,0.00,,,0.00,meteohub,2013-06-11 04:25:00,
2013-06-11 00:30:00,62.4,61.5,29.76,NW,310,2.0,3.0,97,0.00,,,0.00,meteohub,2013-06-11 04:30:00,
2013-06-11 00:35:00,62.6,61.7,29.76,NW,310,2.0,3.0,97,0.01,,,0.01,meteohub,2013-06-11 04:35:00,
2013-06-11 00:40:00,62.8,62.2,29.76,NW,310,2.0,3.0,98,0.01,,,0.01,meteohub,2013-06-11 04:40:00,
2013-06-11 00:45:00,62.8,62.2,29.76,NW,309,1.0,7.0,98,0.01,,,0.01,meteohub,2013-06-11 04:45:00,
2013-06-11 00:51:00,63.0,62.4,29.76,West,280,3.0,7.0,98,0.01,,,0.01,meteohub,2013-06-11 04:51:00,
2013-06-11 00:56:00,63.0,62.4,29.76,WNW,303,1.0,7.0,98,0.01,,,0.01,meteohub,2013-06-11 04:56:00,
2013-06-11 01:01:00,63.0,62.1,29.76,NW,324,2.0,7.0,97,0.01,,,0.01,meteohub,2013-06-11 05:01:00,
2013-06-11 01:06:00,63.0,62.1,29.76,NW,306,1.0,6.0,97,0.01,,,0.01,meteohub,2013-06-11 05:06:00,
2013-06-11 01:11:00,63.0,62.1,29.76,NNW,327,1.0,6.0,97,0.01,,,0.01,meteohub,2013-06-11 05:11:00,
2013-06-11 01:16:00,63.0,62.1,29.76,NW,313,2.0,6.0,97,0.01,,,0.01,meteohub,2013-06-11 05:16:00,
2013-06-11 01:22:00,62.8,61.9,29.76,WNW,302,2.0,6.0,97,0.01,,,0.01,meteohub,2013-06-11 05:22:00,
2013-06-11 01:27:00,62.8,61.9,29.76,NNW,329,4.0,5.0,97,0.01,,,0.01,meteohub,2013-06-11 05:27:00,
2013-06-11 01:32:00,62.8,61.9,29.76,NW,315,2.0,8.0,97,0.01,,,0.01,meteohub,2013-06-11 05:32:00,
2013-06-11 01:37:00,62.8,61.9,29.76,WNW,302,2.0,8.0,97,0.00,,,0.01,meteohub,2013-06-11 05:37:00,
2013-06-11 01:42:00,62.8,61.9,29.76,NW,304,0.0,8.0,97,0.00,,,0.01,meteohub,2013-06-11 05:42:00,
2013-06-11 01:47:00,62.6,61.7,29.76,NNW,333,3.0,8.0,97,0.00,,,0.01,meteohub,2013-06-11 05:47:00,
2013-06-11 01:52:00,62.6,61.7,29.76,NW,315,1.0,6.0,97,0.00,,,0.01,meteohub,2013-06-11 05:52:00,
2013-06-11 01:57:00,62.4,61.5,29.76,NNW,333,2.0,8.0,97,0.00,,,0.01,meteohub,2013-06-11 05:57:00,
2013-06-11 02:02:00,62.4,61.5,29.76,NW,326,2.0,8.0,97,0.00,,,0.01,meteohub,2013-06-11 06:02:00,
2013-06-11 02:07:00,62.2,61.3,29.76,West,281,7.0,7.0,97,0.00,,,0.01,meteohub,2013-06-11 06:07:00,
2013-06-11 02:12:00,62.2,61.3,29.76,NW,311,5.0,7.0,97,0.00,,,0.01,meteohub,2013-06-11 06:12:00,
2013-06-11 02:17:00,62.2,61.3,29.76,NW,307,1.0,7.0,97,0.00,,,0.01,meteohub,2013-06-11 06:17:00,
2013-06-11 02:22:00,62.2,61.3,29.76,North,355,2.0,7.0,97,0.00,,,0.01,meteohub,2013-06-11 06:22:00,
2013-06-11 02:28:00,62.1,61.2,29.76,NNW,327,1.0,6.0,97,0.00,,,0.01,meteohub,2013-06-11 06:28:00,
2013-06-11 02:33:00,62.1,61.2,29.76,NW,317,2.0,6.0,97,0.00,,,0.01,meteohub,2013-06-11 06:33:00,
2013-06-11 02:38:00,62.1,61.2,29.76,NW,309,2.0,6.0,97,0.00,,,0.01,meteohub,2013-06-11 06:38:00,
2013-06-11 02:43:00,62.1,61.2,29.76,NNW,331,3.0,6.0,97,0.00,,,0.01,meteohub,2013-06-11 06:43:00,
2013-06-11 02:48:00,62.2,61.3,29.76,NNW,333,1.0,6.0,97,0.00,,,0.01,meteohub,2013-06-11 06:48:00,
2013-06-11 02:53:00,62.2,61.3,29.76,North,349,2.0,6.0,97,0.00,,,0.01,meteohub,2013-06-11 06:53:00,
2013-06-11 02:58:00,62.2,61.3,29.76,NNW,330,3.0,5.0,97,0.00,,,0.01,meteohub,2013-06-11 06:58:00,
2013-06-11 03:04:00,62.2,61.3,29.76,NW,313,1.0,6.0,97,0.00,,,0.01,meteohub,2013-06-11 07:04:00,
2013-06-11 03:09:00,62.2,61.3,29.76,NNW,340,0.0,6.0,97,0.00,,,0.01,meteohub,2013-06-11 07:09:00,
2013-06-11 03:14:00,62.4,61.5,29.76,WNW,302,1.0,4.0,97,0.00,,,0.01,meteohub,2013-06-11 07:14:00,
2013-06-11 03:19:00,62.4,61.5,29.76,NNW,333,2.0,4.0,97,0.00,,,0.01,meteohub,2013-06-11 07:19:00,
2013-06-11 03:24:00,62.4,61.5,29.76,North,349,1.0,4.0,97,0.00,,,0.01,meteohub,2013-06-11 07:24:00,
2013-06-11 03:29:00,62.4,61.5,29.76,NNW,344,4.0,4.0,97,0.00,,,0.01,meteohub,2013-06-11 07:29:00,
2013-06-11 03:34:00,62.4,61.5,29.76,NNW,344,1.0,5.0,97,0.00,,,0.01,meteohub,2013-06-11 07:34:00,
2013-06-11 03:40:00,62.6,61.7,29.76,North,351,2.0,5.0,97,0.00,,,0.01,meteohub,2013-06-11 07:40:00,
2013-06-11 03:45:00,62.6,61.7,29.76,North,350,2.0,4.0,97,0.00,,,0.01,meteohub,2013-06-11 07:45:00,
2013-06-11 03:50:00,62.6,61.7,29.76,NNW,334,3.0,7.0,97,0.00,,,0.01,meteohub,2013-06-11 07:50:00,
2013-06-11 03:55:00,62.6,61.7,29.76,NNW,342,1.0,7.0,97,0.00,,,0.01,meteohub,2013-06-11 07:55:00,
2013-06-11 04:00:00,62.6,61.7,29.76,North,355,2.0,7.0,97,0.00,,,0.01,meteohub,2013-06-11 08:00:00,
2013-06-11 04:06:00,62.8,61.9,29.76,North,355,3.0,6.0,97,0.00,,,0.01,meteohub,2013-06-11 08:06:00,
2013-06-11 04:11:00,62.8,61.9,29.76,NNW,342,2.0,6.0,97,0.00,,,0.01,meteohub,2013-06-11 08:11:00,
2013-06-11 04:16:00,62.8,61.9,29.76,North,355,2.0,4.0,97,0.00,,,0.01,meteohub,2013-06-11 08:16:00,
2013-06-11 04:21:00,62.8,61.9,29.76,North,355,2.0,4.0,97,0.00,,,0.01,meteohub,2013-06-11 08:21:00,
2013-06-11 04:26:00,62.8,61.9,29.76,NW,325,1.0,4.0,97,0.00,,,0.01,meteohub,2013-06-11 08:26:00,
2013-06-11 04:31:00,63.0,62.1,29.76,NNW,346,3.0,4.0,97,0.00,,,0.01,meteohub,2013-06-11 08:31:00,
2013-06-11 04:36:00,62.8,61.9,29.76,NNW,343,1.0,5.0,97,0.00,,,0.01,meteohub,2013-06-11 08:36:00,
2013-06-11 04:42:00,63.0,62.1,29.77,NNW,340,3.0,5.0,97,0.00,,,0.01,meteohub,2013-06-11 08:42:00,
2013-06-11 04:47:00,63.0,62.1,29.77,North,9,4.0,6.0,97,0.00,,,0.01,meteohub,2013-06-11 08:47:00,
2013-06-11 04:52:00,63.0,62.1,29.77,NNW,332,3.0,6.0,97,0.00,,,0.01,meteohub,2013-06-11 08:52:00,
2013-06-11 04:57:00,63.0,62.1,29.77,NNW,334,3.0,7.0,97,0.00,,,0.01,meteohub,2013-06-11 08:57:00,
2013-06-11 05:02:00,63.1,62.2,29.77,North,350,2.0,9.0,97,0.00,,,0.01,meteohub,2013-06-11 09:02:00,
2013-06-11 05:07:00,63.1,62.2,29.78,NNW,344,3.0,9.0,97,0.00,,,0.01,meteohub,2013-06-11 09:07:00,
2013-06-11 05:13:00,63.1,62.2,29.78,North,355,3.0,9.0,97,0.00,,,0.01,meteohub,2013-06-11 09:13:00,
2013-06-11 05:18:00,63.1,62.2,29.78,North,0,2.0,9.0,97,0.00,,,0.01,meteohub,2013-06-11 09:18:00,
2013-06-11 05:23:00,63.1,62.2,29.78,NW,325,3.0,9.0,97,0.00,,,0.01,meteohub,2013-06-11 09:23:00,
2013-06-11 05:28:00,63.1,62.2,29.78,NNE,20,3.0,8.0,97,0.00,,,0.01,meteohub,2013-06-11 09:28:00,
2013-06-11 05:33:00,63.1,62.2,29.78,North,355,1.0,8.0,97,0.00,,,0.01,meteohub,2013-06-11 09:33:00,
2013-06-11 05:38:00,63.1,62.2,29.78,North,355,2.0,10.0,97,0.00,,,0.01,meteohub,2013-06-11 09:38:00,
2013-06-11 05:43:00,63.1,62.2,29.78,NNW,342,3.0,10.0,97,0.00,,,0.01,meteohub,2013-06-11 09:43:00,
2013-06-11 05:48:00,63.3,62.4,29.78,NW,310,2.0,10.0,97,0.00,,,0.01,meteohub,2013-06-11 09:48:00,
2013-06-11 05:53:00,63.1,62.2,29.78,NNW,345,2.0,6.0,97,0.00,,,0.01,meteohub,2013-06-11 09:53:00,
2013-06-11 05:59:00,63.1,62.2,29.78,NNW,344,2.0,5.0,97,0.00,,,0.01,meteohub,2013-06-11 09:59:00,
2013-06-11 06:04:00,63.3,62.4,29.78,North,11,5.0,5.0,97,0.00,,,0.01,meteohub,2013-06-11 10:04:00,
2013-06-11 06:09:00,63.3,62.4,29.78,NNW,348,3.0,7.0,97,0.00,,,0.01,meteohub,2013-06-11 10:09:00,
2013-06-11 06:14:00,63.3,62.8,29.78,North,0,1.0,8.0,98,0.00,,,0.01,meteohub,2013-06-11 10:14:00,
2013-06-11 06:19:00,63.3,62.8,29.79,North,0,2.0,8.0,98,0.00,,,0.01,meteohub,2013-06-11 10:19:00,
2013-06-11 06:25:00,63.3,62.8,29.79,NNW,340,2.0,7.0,98,0.00,,,0.01,meteohub,2013-06-11 10:25:00,
2013-06-11 06:30:00,63.3,62.8,29.79,North,350,3.0,9.0,98,0.00,,,0.01,meteohub,2013-06-11 10:30:00,
2013-06-11 06:35:00,63.3,62.8,29.79,NW,323,5.0,9.0,98,0.00,,,0.01,meteohub,2013-06-11 10:35:00,
2013-06-11 06:40:00,63.3,62.8,29.80,NNW,337,2.0,10.0,98,0.00,,,0.01,meteohub,2013-06-11 10:40:00,
2013-06-11 06:45:00,63.3,62.8,29.80,NE,36,4.0,10.0,98,0.00,,,0.01,meteohub,2013-06-11 10:45:00,
2013-06-11 06:50:00,63.3,62.8,29.80,NNW,346,2.0,10.0,98,0.00,,,0.01,meteohub,2013-06-11 10:50:00,
2013-06-11 06:56:00,63.3,62.8,29.80,North,355,1.0,8.0,98,0.00,,,0.01,meteohub,2013-06-11 10:56:00,
2013-06-11 07:01:00,63.3,62.8,29.80,North,5,1.0,6.0,98,0.00,,,0.01,meteohub,2013-06-11 11:01:00,
2013-06-11 07:06:00,63.3,62.8,29.81,NNW,345,1.0,7.0,98,0.00,,,0.01,meteohub,2013-06-11 11:06:00,
2013-06-11 07:11:00,63.3,62.8,29.81,North,355,4.0,7.0,98,0.00,,,0.01,meteohub,2013-06-11 11:11:00,
2013-06-11 07:16:00,63.3,62.8,29.81,NNW,342,4.0,8.0,98,0.00,,,0.01,meteohub,2013-06-11 11:16:00,
2013-06-11 07:22:00,63.1,62.2,29.81,ENE,74,4.0,8.0,97,0.00,,,0.01,meteohub,2013-06-11 11:22:00,
2013-06-11 07:27:00,63.1,62.2,29.81,NNE,21,7.0,8.0,97,0.00,,,0.01,meteohub,2013-06-11 11:27:00,
2013-06-11 07:32:00,63.1,62.2,29.82,NNE,18,8.0,9.0,97,0.00,,,0.01,meteohub,2013-06-11 11:32:00,
2013-06-11 07:37:00,63.0,62.1,29.82,NNW,343,2.0,10.0,97,0.00,,,0.01,meteohub,2013-06-11 11:37:00,
2013-06-11 07:42:00,63.0,62.4,29.82,NNW,337,5.0,10.0,98,0.00,,,0.01,meteohub,2013-06-11 11:42:00,
2013-06-11 07:47:00,63.0,62.4,29.82,North,349,5.0,10.0,98,0.00,,,0.01,meteohub,2013-06-11 11:47:00,
2013-06-11 07:52:00,63.0,62.4,29.83,NNW,339,3.0,10.0,98,0.00,,,0.01,meteohub,2013-06-11 11:52:00,
2013-06-11 07:57:00,63.0,62.4,29.83,North,5,5.0,10.0,98,0.00,,,0.01,meteohub,2013-06-11 11:57:00,
2013-06-11 08:02:00,62.8,62.2,29.83,NNE,33,8.0,10.0,98,0.00,,,0.01,meteohub,2013-06-11 12:02:00,
2013-06-11 08:07:00,62.6,62.1,29.83,NE,56,4.0,11.0,98,0.00,,,0.01,meteohub,2013-06-11 12:07:00,
2013-06-11 08:12:00,62.6,62.1,29.84,NNW,339,3.0,11.0,98,0.00,,,0.01,meteohub,2013-06-11 12:12:00,
2013-06-11 08:17:00,62.4,61.9,29.84,North,350,1.0,11.0,98,0.00,,,0.01,meteohub,2013-06-11 12:17:00,
2013-06-11 08:22:00,62.4,61.9,29.84,NE,44,6.0,10.0,98,0.00,,,0.01,meteohub,2013-06-11 12:22:00,
2013-06-11 08:27:00,62.2,61.7,29.85,NNW,342,2.0,10.0,98,0.00,,,0.01,meteohub,2013-06-11 12:27:00,
2013-06-11 08:32:00,62.2,61.7,29.85,North,9,1.0,13.0,98,0.00,,,0.01,meteohub,2013-06-11 12:32:00,
2013-06-11 08:38:00,62.2,61.7,29.85,NNE,15,4.0,13.0,98,0.00,,,0.01,meteohub,2013-06-11 12:38:00,
2013-06-11 08:43:00,62.2,61.7,29.85,North,355,5.0,13.0,98,0.00,,,0.01,meteohub,2013-06-11 12:43:00,
2013-06-11 08:48:00,62.2,61.7,29.85,North,349,5.0,10.0,98,0.00,,,0.01,meteohub,2013-06-11 12:48:00,
2013-06-11 08:53:00,62.2,61.7,29.85,NNE,33,2.0,8.0,98,0.00,,,0.01,meteohub,2013-06-11 12:53:00,
2013-06-11 08:58:00,62.2,61.7,29.85,NNE,31,2.0,8.0,98,0.00,,,0.01,meteohub,2013-06-11 12:58:00,
2013-06-11 09:04:00,62.4,61.9,29.85,NNE,27,7.0,8.0,98,0.00,,,0.01,meteohub,2013-06-11 13:04:00,
2013-06-11 09:09:00,62.4,61.9,29.85,NNW,338,2.0,10.0,98,0.00,,,0.01,meteohub,2013-06-11 13:09:00,
2013-06-11 09:14:00,62.4,61.9,29.85,NNE,21,1.0,10.0,98,0.00,,,0.01,meteohub,2013-06-11 13:14:00,
2013-06-11 09:19:00,62.4,61.9,29.85,NNE,30,6.0,9.0,98,0.00,,,0.01,meteohub,2013-06-11 13:19:00,
2013-06-11 09:24:00,62.4,61.9,29.85,NNE,13,3.0,8.0,98,0.00,,,0.01,meteohub,2013-06-11 13:24:00,
2013-06-11 09:30:00,62.6,62.1,29.85,NNE,30,4.0,9.0,98,0.00,,,0.01,meteohub,2013-06-11 13:30:00,
2013-06-11 09:35:00,62.8,62.2,29.85,NNW,345,2.0,9.0,98,0.00,,,0.01,meteohub,2013-06-11 13:35:00,
2013-06-11 09:40:00,62.8,62.2,29.86,North,355,5.0,9.0,98,0.00,,,0.01,meteohub,2013-06-11 13:40:00,
2013-06-11 09:45:00,62.8,62.2,29.86,NNW,347,3.0,9.0,98,0.00,,,0.01,meteohub,2013-06-11 13:45:00,
2013-06-11 09:50:00,62.8,62.2,29.85,NW,325,5.0,9.0,98,0.00,,,0.01,meteohub,2013-06-11 13:50:00,
2013-06-11 09:55:00,62.8,61.9,29.85,NE,45,5.0,8.0,97,0.00,,,0.01,meteohub,2013-06-11 13:55:00,
2013-06-11 10:00:00,62.6,61.7,29.86,NNE,13,3.0,8.0,97,0.00,,,0.01,meteohub,2013-06-11 14:00:00,
2013-06-11 10:05:00,62.6,61.7,29.86,North,355,4.0,9.0,97,0.00,,,0.01,meteohub,2013-06-11 14:05:00,
2013-06-11 10:10:00,62.4,61.5,29.86,NNW,340,4.0,9.0,97,0.00,,,0.01,meteohub,2013-06-11 14:10:00,
2013-06-11 10:16:00,62.4,61.5,29.86,NNE,23,3.0,9.0,97,0.00,,,0.01,meteohub,2013-06-11 14:16:00,
2013-06-11 10:21:00,62.6,61.7,29.86,NNW,335,3.0,9.0,97,0.00,,,0.01,meteohub,2013-06-11 14:21:00,
2013-06-11 10:26:00,62.8,62.2,29.86,North,0,5.0,9.0,98,0.00,,,0.01,meteohub,2013-06-11 14:26:00,
2013-06-11 10:31:00,62.8,62.2,29.86,NNE,17,3.0,11.0,98,0.00,,,0.01,meteohub,2013-06-11 14:31:00,
2013-06-11 10:37:00,62.8,62.2,29.86,North,355,3.0,11.0,98,0.00,,,0.01,meteohub,2013-06-11 14:37:00,
2013-06-11 10:42:00,63.0,62.1,29.85,North,355,4.0,9.0,97,0.00,,,0.01,meteohub,2013-06-11 14:42:00,
2013-06-11 10:47:00,63.3,62.4,29.86,North,0,1.0,12.0,97,0.00,,,0.01,meteohub,2013-06-11 14:47:00,
2013-06-11 10:52:00,63.5,62.6,29.86,NNW,339,2.0,12.0,97,0.00,,,0.01,meteohub,2013-06-11 14:52:00,
2013-06-11 10:57:00,63.9,63.0,29.86,NW,323,2.0,12.0,97,0.00,,,0.01,meteohub,2013-06-11 14:57:00,
2013-06-11 11:02:00,64.0,63.1,29.86,North,5,3.0,10.0,97,0.00,,,0.01,meteohub,2013-06-11 15:02:00,
2013-06-11 11:07:00,64.2,63.1,29.86,NNW,344,2.0,10.0,96,0.00,,,0.01,meteohub,2013-06-11 15:07:00,
2013-06-11 11:13:00,64.2,62.8,29.86,NNW,348,8.0,10.0,95,0.00,,,0.01,meteohub,2013-06-11 15:13:00,
2013-06-11 11:18:00,64.4,63.0,29.86,NNW,346,5.0,12.0,95,0.00,,,0.01,meteohub,2013-06-11 15:18:00,
2013-06-11 11:23:00,64.6,62.8,29.86,NNW,331,3.0,12.0,94,0.00,,,0.01,meteohub,2013-06-11 15:23:00,
2013-06-11 11:28:00,64.9,62.8,29.86,North,5,6.0,12.0,93,0.00,,,0.01,meteohub,2013-06-11 15:28:00,
2013-06-11 11:33:00,65.1,62.8,29.86,NNW,339,4.0,10.0,92,0.00,,,0.01,meteohub,2013-06-11 15:33:00,
2013-06-11 11:38:00,65.7,63.3,29.86,ENE,59,8.0,10.0,92,0.00,,,0.01,meteohub,2013-06-11 15:38:00,
2013-06-11 11:44:00,66.0,63.3,29.86,ENE,64,1.0,11.0,91,0.00,,,0.01,meteohub,2013-06-11 15:44:00,
2013-06-11 11:49:00,66.4,63.3,29.87,NW,320,2.0,11.0,90,0.00,,,0.01,meteohub,2013-06-11 15:49:00,
2013-06-11 11:54:00,66.6,63.5,29.87,North,350,9.0,9.0,90,0.00,,,0.01,meteohub,2013-06-11 15:54:00,
2013-06-11 11:59:00,66.7,63.3,29.87,NNE,23,4.0,9.0,89,0.00,,,0.01,meteohub,2013-06-11 15:59:00,
2013-06-11 12:04:00,66.9,63.5,29.87,NNW,346,2.0,9.0,89,0.00,,,0.01,meteohub,2013-06-11 16:04:00,
2013-06-11 12:09:00,67.1,63.1,29.87,NNW,348,5.0,10.0,87,0.00,,,0.01,meteohub,2013-06-11 16:09:00,
2013-06-11 12:14:00,67.3,63.3,29.87,NNW,340,5.0,10.0,87,0.00,,,0.01,meteohub,2013-06-11 16:14:00,
2013-06-11 12:20:00,67.3,63.3,29.88,North,351,5.0,10.0,87,0.00,,,0.01,meteohub,2013-06-11 16:20:00,
2013-06-11 12:25:00,66.7,62.8,29.88,North,5,3.0,13.0,87,0.01,,,0.02,meteohub,2013-06-11 16:25:00,
2013-06-11 12:30:00,67.1,63.7,29.88,NW,322,6.0,13.0,89,0.01,,,0.02,meteohub,2013-06-11 16:30:00,
2013-06-11 12:35:00,67.6,64.0,29.88,NNW,346,5.0,11.0,88,0.01,,,0.02,meteohub,2013-06-11 16:35:00,
2013-06-11 12:40:00,67.8,63.1,29.88,North,0,13.0,13.0,85,0.01,,,0.02,meteohub,2013-06-11 16:40:00,
2013-06-11 12:46:00,68.0,63.0,29.88,NNW,344,2.0,13.0,84,0.01,,,0.02,meteohub,2013-06-11 16:46:00,
2013-06-11 12:51:00,68.4,63.7,29.88,NW,321,7.0,13.0,85,0.01,,,0.02,meteohub,2013-06-11 16:51:00,
2013-06-11 12:56:00,68.4,63.3,29.88,NE,49,2.0,13.0,84,0.01,,,0.02,meteohub,2013-06-11 16:56:00,
2013-06-11 13:01:00,68.5,63.1,29.88,NNW,340,2.0,11.0,83,0.01,,,0.02,meteohub,2013-06-11 17:01:00,
2013-06-11 13:07:00,68.2,63.1,29.88,NW,322,4.0,11.0,84,0.01,,,0.02,meteohub,2013-06-11 17:07:00,
2013-06-11 13:12:00,67.6,62.6,29.88,NNW,339,4.0,13.0,84,0.01,,,0.02,meteohub,2013-06-11 17:12:00,
2013-06-11 13:17:00,67.6,63.0,29.88,North,5,7.0,13.0,85,0.01,,,0.02,meteohub,2013-06-11 17:17:00,
2013-06-11 13:22:00,68.0,63.7,29.88,NW,316,4.0,13.0,86,0.00,,,0.02,meteohub,2013-06-11 17:22:00,
2013-06-11 13:27:00,67.8,62.8,29.88,NNW,327,3.0,11.0,84,0.00,,,0.02,meteohub,2013-06-11 17:27:00,
2013-06-11 13:32:00,67.8,63.5,29.88,NW,325,5.0,11.0,86,0.00,,,0.02,meteohub,2013-06-11 17:32:00,
2013-06-11 13:37:00,67.6,62.6,29.88,North,355,8.0,10.0,84,0.00,,,0.02,meteohub,2013-06-11 17:37:00,
2013-06-11 13:42:00,67.3,63.0,29.88,NNW,346,3.0,10.0,86,0.00,,,0.02,meteohub,2013-06-11 17:42:00,
2013-06-11 13:47:00,67.1,62.8,29.89,NW,319,2.0,9.0,86,0.00,,,0.02,meteohub,2013-06-11 17:47:00,
2013-06-11 13:52:00,67.3,63.0,29.89,NE,34,4.0,10.0,86,0.00,,,0.02,meteohub,2013-06-11 17:52:00,
2013-06-11 13:58:00,67.3,62.6,29.89,NNW,327,6.0,10.0,85,0.00,,,0.02,meteohub,2013-06-11 17:58:00,
2013-06-11 14:03:00,66.9,63.0,29.89,NNE,23,9.0,10.0,87,0.00,,,0.02,meteohub,2013-06-11 18:03:00,
2013-06-11 14:08:00,67.3,63.0,29.89,NNW,334,5.0,10.0,86,0.00,,,0.02,meteohub,2013-06-11 18:08:00,
2013-06-11 14:13:00,67.1,62.8,29.89,North,5,5.0,10.0,86,0.00,,,0.02,meteohub,2013-06-11 18:13:00,
2013-06-11 14:19:00,66.9,62.6,29.89,NNE,24,6.0,11.0,86,0.00,,,0.02,meteohub,2013-06-11 18:19:00,
2013-06-11 14:24:00,67.3,63.3,29.89,NNW,340,5.0,13.0,87,0.00,,,0.02,meteohub,2013-06-11 18:24:00,
2013-06-11 14:29:00,67.6,63.7,29.89,NNW,346,2.0,13.0,87,0.00,,,0.02,meteohub,2013-06-11 18:29:00,
2013-06-11 14:34:00,68.0,63.3,29.89,North,351,5.0,13.0,85,0.00,,,0.02,meteohub,2013-06-11 18:34:00,
2013-06-11 14:39:00,68.4,63.3,29.89,NNW,336,3.0,12.0,84,0.00,,,0.02,meteohub,2013-06-11 18:39:00,
2013-06-11 14:44:00,68.5,63.9,29.89,NNW,332,8.0,12.0,85,0.00,,,0.02,meteohub,2013-06-11 18:44:00,
2013-06-11 14:49:00,68.7,64.0,29.88,NW,305,3.0,11.0,85,0.00,,,0.02,meteohub,2013-06-11 18:49:00,
2013-06-11 14:55:00,68.5,63.1,29.89,NNW,336,4.0,11.0,83,0.00,,,0.02,meteohub,2013-06-11 18:55:00,
2013-06-11 15:00:00,68.4,63.3,29.89,NNW,348,3.0,14.0,84,0.00,,,0.02,meteohub,2013-06-11 19:00:00,
2013-06-11 15:05:00,68.4,63.3,29.88,North,355,7.0,14.0,84,0.00,,,0.02,meteohub,2013-06-11 19:05:00,
2013-06-11 15:10:00,68.4,63.3,29.88,NNW,327,5.0,11.0,84,0.00,,,0.02,meteohub,2013-06-11 19:10:00,
2013-06-11 15:15:00,68.2,63.1,29.88,NNE,20,2.0,11.0,84,0.00,,,0.02,meteohub,2013-06-11 19:15:00,
2013-06-11 15:21:00,68.2,63.5,29.88,NNW,345,4.0,11.0,85,0.00,,,0.02,meteohub,2013-06-11 19:21:00,
2013-06-11 15:26:00,68.5,63.9,29.88,NW,319,4.0,11.0,85,0.00,,,0.02,meteohub,2013-06-11 19:26:00,
2013-06-11 15:31:00,68.7,63.3,29.88,North,11,1.0,11.0,83,0.00,,,0.02,meteohub,2013-06-11 19:31:00,
2013-06-11 15:36:00,69.1,63.3,29.88,NW,321,3.0,8.0,82,0.00,,,0.02,meteohub,2013-06-11 19:36:00,
2013-06-11 15:41:00,69.3,63.5,29.88,NNE,13,1.0,11.0,82,0.00,,,0.02,meteohub,2013-06-11 19:41:00,
2013-06-11 15:47:00,70.0,63.9,29.88,North,355,6.0,11.0,81,0.00,,,0.02,meteohub,2013-06-11 19:47:00,
2013-06-11 15:52:00,70.2,63.7,29.87,NNE,24,5.0,11.0,80,0.00,,,0.02,meteohub,2013-06-11 19:52:00,
2013-06-11 15:57:00,70.2,63.7,29.87,NNE,24,1.0,10.0,80,0.00,,,0.02,meteohub,2013-06-11 19:57:00,
2013-06-11 16:02:00,70.3,63.5,29.87,North,350,3.0,10.0,79,0.00,,,0.02,meteohub,2013-06-11 20:02:00,
2013-06-11 16:07:00,70.3,63.9,29.88,North,5,5.0,10.0,80,0.00,,,0.02,meteohub,2013-06-11 20:07:00,
2013-06-11 16:12:00,70.5,63.3,29.87,NE,42,8.0,10.0,78,0.00,,,0.02,meteohub,2013-06-11 20:12:00,
2013-06-11 16:17:00,70.3,63.1,29.88,NW,319,6.0,10.0,78,0.00,,,0.02,meteohub,2013-06-11 20:17:00,
2013-06-11 16:22:00,70.3,62.8,29.88,NNW,342,3.0,11.0,77,0.00,,,0.02,meteohub,2013-06-11 20:22:00,
2013-06-11 16:27:00,70.9,64.0,29.87,North,0,2.0,11.0,79,0.00,,,0.02,meteohub,2013-06-11 20:27:00,
2013-06-11 16:32:00,71.1,63.1,29.87,NNW,328,4.0,11.0,76,0.00,,,0.02,meteohub,2013-06-11 20:32:00,
2013-06-11 16:37:00,71.4,63.1,29.87,NNW,327,4.0,11.0,75,0.00,,,0.02,meteohub,2013-06-11 20:37:00,
2013-06-11 16:42:00,71.4,63.5,29.87,NNE,24,2.0,11.0,76,0.00,,,0.02,meteohub,2013-06-11 20:42:00,
2013-06-11 16:48:00,71.2,63.3,29.87,NNW,332,4.0,11.0,76,0.00,,,0.02,meteohub,2013-06-11 20:48:00,
2013-06-11 16:53:00,72.0,63.7,29.87,NW,323,5.0,11.0,75,0.00,,,0.02,meteohub,2013-06-11 20:53:00,
2013-06-11 16:58:00,71.8,63.0,29.87,NNW,343,3.0,13.0,74,0.00,,,0.02,meteohub,2013-06-11 20:58:00,
2013-06-11 17:03:00,71.8,62.6,29.87,North,11,4.0,13.0,73,0.00,,,0.02,meteohub,2013-06-11 21:03:00,
2013-06-11 17:08:00,72.0,63.1,29.87,NNW,327,5.0,13.0,74,0.00,,,0.02,meteohub,2013-06-11 21:08:00,
2013-06-11 17:13:00,71.8,63.5,29.87,NNW,328,2.0,13.0,75,0.00,,,0.02,meteohub,2013-06-11 21:13:00,
2013-06-11 17:19:00,71.4,63.1,29.87,NNW,345,6.0,12.0,75,0.00,,,0.02,meteohub,2013-06-11 21:19:00,
2013-06-11 17:24:00,71.4,63.9,29.87,WNW,292,2.0,10.0,77,0.00,,,0.02,meteohub,2013-06-11 21:24:00,
2013-06-11 17:29:00,71.8,63.5,29.87,NNW,340,7.0,11.0,75,0.00,,,0.02,meteohub,2013-06-11 21:29:00,
2013-06-11 17:34:00,71.4,63.1,29.87,North,5,3.0,11.0,75,0.00,,,0.02,meteohub,2013-06-11 21:34:00,
2013-06-11 17:39:00,71.4,63.1,29.87,NW,321,4.0,11.0,75,0.00,,,0.02,meteohub,2013-06-11 21:39:00,
2013-06-11 17:44:00,71.4,63.1,29.87,North,355,2.0,11.0,75,0.00,,,0.02,meteohub,2013-06-11 21:44:00,
2013-06-11 17:49:00,71.4,63.1,29.87,North,350,5.0,11.0,75,0.00,,,0.02,meteohub,2013-06-11 21:49:00,
2013-06-11 17:55:00,72.0,63.7,29.87,North,355,6.0,12.0,75,0.00,,,0.02,meteohub,2013-06-11 21:55:00,
2013-06-11 18:00:00,71.6,62.4,29.87,NNW,332,2.0,12.0,73,0.00,,,0.02,meteohub,2013-06-11 22:00:00,
2013-06-11 18:05:00,71.2,62.6,29.87,NNE,22,3.0,10.0,74,0.00,,,0.02,meteohub,2013-06-11 22:05:00,
2013-06-11 18:10:00,71.2,62.6,29.87,NW,313,4.0,10.0,74,0.00,,,0.02,meteohub,2013-06-11 22:10:00,
2013-06-11 18:16:00,71.2,62.6,29.87,NNW,333,4.0,10.0,74,0.00,,,0.02,meteohub,2013-06-11 22:16:00,
2013-06-11 18:21:00,71.2,62.1,29.87,North,0,6.0,8.0,73,0.00,,,0.02,meteohub,2013-06-11 22:21:00,
2013-06-11 18:26:00,71.4,62.8,29.87,NW,310,3.0,8.0,74,0.00,,,0.02,meteohub,2013-06-11 22:26:00,
2013-06-11 18:31:00,71.4,62.8,29.87,NNW,335,2.0,6.0,74,0.00,,,0.02,meteohub,2013-06-11 22:31:00,
2013-06-11 18:36:00,71.2,63.0,29.87,NNW,344,1.0,7.0,75,0.00,,,0.02,meteohub,2013-06-11 22:36:00,
2013-06-11 18:42:00,71.2,63.0,29.87,NNW,333,1.0,7.0,75,0.00,,,0.02,meteohub,2013-06-11 22:42:00,
2013-06-11 18:47:00,71.1,63.1,29.87,NNW,332,4.0,7.0,76,0.00,,,0.02,meteohub,2013-06-11 22:47:00,
2013-06-11 18:52:00,71.1,62.8,29.87,North,5,4.0,6.0,75,0.00,,,0.02,meteohub,2013-06-11 22:52:00,
2013-06-11 18:57:00,71.2,63.3,29.87,NE,43,4.0,6.0,76,0.00,,,0.02,meteohub,2013-06-11 22:57:00,
2013-06-11 19:02:00,71.2,62.6,29.87,North,350,3.0,6.0,74,0.00,,,0.02,meteohub,2013-06-11 23:02:00,
2013-06-11 19:07:00,70.9,62.2,29.87,North,5,3.0,8.0,74,0.00,,,0.02,meteohub,2013-06-11 23:07:00,
2013-06-11 19:12:00,70.5,62.2,29.87,North,349,3.0,8.0,75,0.00,,,0.02,meteohub,2013-06-11 23:12:00,
2013-06-11 19:17:00,70.5,62.2,29.87,North,355,1.0,8.0,75,0.00,,,0.02,meteohub,2013-06-11 23:17:00,
2013-06-11 19:22:00,70.5,62.2,29.87,NE,45,1.0,7.0,75,0.00,,,0.02,meteohub,2013-06-11 23:22:00,
2013-06-11 19:27:00,70.3,62.1,29.87,North,355,2.0,5.0,75,0.00,,,0.02,meteohub,2013-06-11 23:27:00,
2013-06-11 19:32:00,70.2,62.2,29.87,North,355,1.0,5.0,76,0.00,,,0.02,meteohub,2013-06-11 23:32:00,
2013-06-11 19:37:00,70.0,62.4,29.87,North,355,1.0,5.0,77,0.00,,,0.02,meteohub,2013-06-11 23:37:00,
2013-06-11 19:42:00,69.6,62.1,29.87,North,355,0.0,3.0,77,0.00,,,0.02,meteohub,2013-06-11 23:42:00,
2013-06-11 19:48:00,69.4,62.2,29.87,North,355,1.0,3.0,78,0.00,,,0.02,meteohub,2013-06-11 23:48:00,
2013-06-11 19:53:00,69.3,62.1,29.87,North,355,0.0,3.0,78,0.00,,,0.02,meteohub,2013-06-11 23:53:00,
2013-06-11 19:58:00,69.1,62.2,29.87,North,355,0.0,2.0,79,0.00,,,0.02,meteohub,2013-06-11 23:58:00,
2013-06-11 20:03:00,68.9,62.4,29.87,North,355,0.0,2.0,80,0.00,,,0.02,meteohub,2013-06-12 00:03:00,
2013-06-11 20:08:00,68.7,62.2,29.87,North,355,0.0,2.0,80,0.00,,,0.00,meteohub,2013-06-12 00:08:00,
2013-06-11 20:13:00,68.5,62.4,29.88,North,355,0.0,0.0,81,0.00,,,0.00,meteohub,2013-06-12 00:13:00,
2013-06-11 20:19:00,68.4,63.0,29.87,North,355,0.0,0.0,83,0.00,,,0.00,meteohub,2013-06-12 00:19:00,
2013-06-11 20:24:00,68.2,62.8,29.87,North,355,0.0,0.0,83,0.00,,,0.00,meteohub,2013-06-12 00:24:00,
2013-06-11 20:29:00,67.8,62.8,29.87,North,355,0.0,0.0,84,0.00,,,0.00,meteohub,2013-06-12 00:29:00,
2013-06-11 20:34:00,67.5,62.4,29.87,North,355,0.0,1.0,84,0.00,,,0.00,meteohub,2013-06-12 00:34:00,
2013-06-11 20:39:00,67.1,62.4,29.87,North,355,0.0,1.0,85,0.00,,,0.00,meteohub,2013-06-12 00:39:00,
2013-06-11 20:44:00,66.9,62.6,29.87,North,355,0.0,1.0,86,0.00,,,0.00,meteohub,2013-06-12 00:44:00,
2013-06-11 20:49:00,66.7,62.4,29.88,North,355,0.0,1.0,86,0.00,,,0.00,meteohub,2013-06-12 00:49:00,
2013-06-11 20:54:00,66.6,62.6,29.88,North,355,0.0,0.0,87,0.00,,,0.00,meteohub,2013-06-12 00:54:00,
2013-06-11 21:00:00,66.4,62.8,29.88,North,355,0.0,0.0,88,0.00,,,0.00,meteohub,2013-06-12 01:00:00,
2013-06-11 21:05:00,66.0,62.6,29.88,North,355,0.0,0.0,89,0.00,,,0.00,meteohub,2013-06-12 01:05:00,
2013-06-11 21:10:00,65.8,62.4,29.88,North,355,0.0,0.0,89,0.00,,,0.00,meteohub,2013-06-12 01:10:00,
2013-06-11 21:15:00,65.7,62.2,29.88,North,355,0.0,0.0,89,0.00,,,0.00,meteohub,2013-06-12 01:15:00,
2013-06-11 21:20:00,65.5,62.2,29.88,North,355,0.0,1.0,89,0.00,,,0.00,meteohub,2013-06-12 01:20:00,
2013-06-11 21:25:00,65.1,62.1,29.87,North,355,0.0,1.0,90,0.00,,,0.00,meteohub,2013-06-12 01:25:00,
2013-06-11 21:30:00,64.9,61.9,29.87,North,355,0.0,1.0,90,0.00,,,0.00,meteohub,2013-06-12 01:30:00,
2013-06-11 21:36:00,64.8,61.7,29.87,North,355,0.0,1.0,90,0.00,,,0.00,meteohub,2013-06-12 01:36:00,
2013-06-11 21:41:00,64.6,61.9,29.87,North,355,0.0,1.0,91,0.00,,,0.00,meteohub,2013-06-12 01:41:00,
2013-06-11 21:46:00,64.4,61.7,29.87,North,355,0.0,1.0,91,0.00,,,0.00,meteohub,2013-06-12 01:46:00,
2013-06-11 21:51:00,64.2,61.5,29.87,North,355,0.0,0.0,91,0.00,,,0.00,meteohub,2013-06-12 01:51:00,
2013-06-11 21:57:00,64.0,61.7,29.88,North,355,0.0,0.0,92,0.00,,,0.00,meteohub,2013-06-12 01:57:00,
2013-06-11 22:02:00,63.9,61.5,29.88,North,355,0.0,0.0,92,0.00,,,0.00,meteohub,2013-06-12 02:02:00,
2013-06-11 22:07:00,63.9,61.5,29.88,North,355,0.0,0.0,92,0.00,,,0.00,meteohub,2013-06-12 02:07:00,
2013-06-11 22:12:00,63.7,61.3,29.88,North,355,0.0,0.0,92,0.00,,,0.00,meteohub,2013-06-12 02:12:00,
2013-06-11 22:17:00,63.3,61.3,29.88,North,355,0.0,0.0,93,0.00,,,0.00,meteohub,2013-06-12 02:17:00,
2013-06-11 22:22:00,63.3,61.3,29.88,North,355,0.0,0.0,93,0.00,,,0.00,meteohub,2013-06-12 02:22:00,
2013-06-11 22:27:00,63.1,61.2,29.88,North,355,0.0,0.0,93,0.00,,,0.00,meteohub,2013-06-12 02:27:00,
2013-06-11 22:32:00,63.1,61.3,29.88,North,355,0.0,0.0,94,0.00,,,0.00,meteohub,2013-06-12 02:32:00,
2013-06-11 22:37:00,63.0,61.2,29.88,North,355,0.0,1.0,94,0.00,,,0.00,meteohub,2013-06-12 02:37:00,
2013-06-11 22:42:00,63.0,61.2,29.88,North,355,0.0,1.0,94,0.00,,,0.00,meteohub,2013-06-12 02:42:00,
2013-06-11 22:47:00,63.0,61.2,29.87,North,355,0.0,1.0,94,0.00,,,0.00,meteohub,2013-06-12 02:47:00,
2013-06-11 22:52:00,62.8,61.0,29.87,North,355,0.0,0.0,94,0.00,,,0.00,meteohub,2013-06-12 02:52:00,
2013-06-11 22:57:00,62.8,61.0,29.87,North,355,0.0,0.0,94,0.00,,,0.00,meteohub,2013-06-12 02:57:00,
2013-06-11 23:02:00,62.8,61.3,29.87,North,355,0.0,0.0,95,0.00,,,0.00,meteohub,2013-06-12 03:02:00,
2013-06-11 23:08:00,62.8,61.3,29.88,North,355,0.0,0.0,95,0.00,,,0.00,meteohub,2013-06-12 03:08:00,
2013-06-11 23:13:00,62.8,61.3,29.87,North,355,0.0,1.0,95,0.00,,,0.00,meteohub,2013-06-12 03:13:00,
2013-06-11 23:18:00,62.8,61.3,29.88,North,355,0.0,1.0,95,0.00,,,0.00,meteohub,2013-06-12 03:18:00,
2013-06-11 23:23:00,63.0,61.9,29.88,North,355,0.0,2.0,96,0.00,,,0.00,meteohub,2013-06-12 03:23:00,
2013-06-11 23:28:00,63.1,61.7,29.88,North,355,0.0,2.0,95,0.00,,,0.00,meteohub,2013-06-12 03:28:00,
2013-06-11 23:33:00,63.1,61.7,29.87,North,355,0.0,2.0,95,0.00,,,0.00,meteohub,2013-06-12 03:33:00,
2013-06-11 23:38:00,63.1,61.7,29.87,North,355,1.0,1.0,95,0.00,,,0.00,meteohub,2013-06-12 03:38:00,
2013-06-11 23:43:00,63.1,61.7,29.87,North,355,1.0,2.0,95,0.00,,,0.00,meteohub,2013-06-12 03:43:00,
2013-06-11 23:48:00,63.0,61.5,29.87,North,355,1.0,2.0,95,0.00,,,0.00,meteohub,2013-06-12 03:48:00,
2013-06-11 23:54:00,63.0,61.5,29.88,North,355,1.0,2.0,95,0.00,,,0.00,meteohub,2013-06-12 03:54:00,
2013-06-11 23:59:00,63.0,61.5,29.87,North,355,1.0,2.0,95,0.00,,,0.00,meteohub,2013-06-12 03:59:00,